logo
Rechercher aéroport 
image banner adimage banner adimage banner ad
image banner ad

FAPU - Paarl

Situé à Paarl, South Africa

ICAO - FAPU, IATA -

Données fournies par Airmate  

Information générale

Coordonnées: S33°42'39" E19°1'30"
Élévation : 597 feet MSL.
 
Voir autres Aéroports à Western Cape

Données opérationnelles

Special qualification required
Heure actuelle UTC:
Heure actuelle locale:
Météo à : - ( 0 km )
METAR: USTR 191311Z 16004MPS 9000 -TSRA BKN038CB 18/18 Q1009 R21/290060 R30/////99 TEMPO VRB20MPS 1000 TSRAGR VV003
Voir NOTAMs / SUP AIP / TFR affectant cet aéroport [VIEW]
Fréquences de communication: [VIEW]

Pistes:

Identifiant RWYQFULongueur (ft)Largeur (ft)SurfaceLDA (ft)
12125°183733GRASS
30305°183733GRASS

Coordonnées de l'aéroport

Adresse: Paarl South Africa

Vue satellite de FAPU